Time;durP1;ratioP1;P1;durP2;ratioP2;P2;SDS_P1;SDS_P2;PMS_P1;PMS_P2;Temp;Humidity;BMP_temperature;BMP_pressure;BME280_temperature;BME280_humidity;BME280_pressure;Samples;Min_cycle;Max_cycle;Signal;HPM_P1;HPM_P2
2022/06/16 00:00:36;;;;;;;119.22;111.15;;;;;;;15.10;100.00;101526.56;5037811;28;20128;-90
2022/06/16 00:03:04;;;;;;;63.70;58.30;;;;;;;15.10;100.00;101536.44;5041337;28;20124;-90
2022/06/16 00:05:35;;;;;;;57.95;52.75;;;;;;;14.99;100.00;101532.59;5038068;28;20045;-90
2022/06/16 00:08:03;;;;;;;61.72;56.42;;;;;;;15.05;100.00;101525.56;5036402;28;20067;-91
2022/06/16 00:10:30;;;;;;;110.50;102.53;;;;;;;15.04;100.00;101522.06;5035830;28;20128;-90
2022/06/16 00:12:57;;;;;;;102.20;94.22;;;;;;;14.97;100.00;101518.59;5038852;28;20132;-88
2022/06/16 00:15:27;;;;;;;81.93;75.28;;;;;;;15.04;100.00;101526.59;5034511;28;20400;-90
2022/06/16 00:17:54;;;;;;;90.07;83.10;;;;;;;14.94;100.00;101524.38;5043077;28;20048;-91
2022/06/16 00:20:21;;;;;;;109.75;102.25;;;;;;;14.38;100.00;101525.84;5039744;28;20148;-89
2022/06/16 00:22:50;;;;;;;127.10;118.32;;;;;;;14.38;100.00;101517.84;5038670;28;20128;-90
2022/06/16 00:25:17;;;;;;;60.97;55.78;;;;;;;14.38;100.00;101528.53;5038528;28;20577;-92
2022/06/16 00:27:44;;;;;;;70.18;63.97;;;;;;;14.68;100.00;101517.34;5043662;28;20540;-90
2022/06/16 00:30:12;;;;;;;65.18;59.65;;;;;;;14.88;100.00;101522.56;5035608;28;20136;-89
2022/06/16 00:32:41;;;;;;;59.78;54.33;;;;;;;14.89;100.00;101514.34;5032652;28;20056;-90
2022/06/16 00:35:09;;;;;;;84.57;77.63;;;;;;;14.74;100.00;101527.19;5032752;28;20080;-90
2022/06/16 00:37:36;;;;;;;81.65;75.30;;;;;;;14.21;100.00;101519.34;5034880;28;20496;-88
2022/06/16 00:40:05;;;;;;;99.70;92.57;;;;;;;14.46;100.00;101519.44;5040471;28;20051;-89
2022/06/16 00:42:32;;;;;;;86.05;79.10;;;;;;;14.71;100.00;101521.44;5037712;28;20382;-88
2022/06/16 00:44:59;;;;;;;83.53;77.13;;;;;;;14.69;100.00;101518.97;5036237;28;20401;-88
2022/06/16 00:47:30;;;;;;;102.00;94.35;;;;;;;14.82;100.00;101516.22;5035503;28;20142;-90
2022/06/16 00:50:00;;;;;;;119.68;110.95;;;;;;;14.78;100.00;101515.00;5043806;28;20215;-90
2022/06/16 00:52:30;;;;;;;98.45;90.88;;;;;;;14.86;100.00;101519.28;5036634;28;20335;-90
2022/06/16 00:55:04;;;;;;;92.10;85.07;;;;;;;14.89;100.00;101518.88;5042215;28;20046;-89
2022/06/16 00:57:39;;;;;;;86.03;79.35;;;;;;;14.89;100.00;101514.34;5037402;28;20131;-89
2022/06/16 01:00:12;;;;;;;93.43;86.05;;;;;;;14.78;100.00;101512.34;5035410;28;20038;-87
2022/06/16 01:02:39;;;;;;;98.10;90.72;;;;;;;14.78;100.00;101511.50;5035844;28;20130;-88
2022/06/16 01:05:06;;;;;;;106.97;99.25;;;;;;;15.01;100.00;101506.44;5039201;28;20053;-89
2022/06/16 01:07:43;;;;;;;77.30;71.07;;;;;;;15.05;100.00;101518.34;5032891;28;20045;-91
2022/06/16 01:10:40;;;;;;;74.53;68.32;;;;;;;14.74;100.00;101510.31;5033762;28;20056;-88
2022/06/16 01:13:44;;;;;;;75.50;69.50;;;;;;;14.68;100.00;101511.16;5036841;28;20049;-88
2022/06/16 01:16:23;;;;;;;75.78;69.95;;;;;;;14.70;100.00;101503.75;5038594;28;20139;-89
2022/06/16 01:19:15;;;;;;;85.00;78.00;;;;;;;14.75;100.00;101499.38;5034875;28;20113;-90
2022/06/16 01:21:55;;;;;;;87.68;80.70;;;;;;;14.55;100.00;101506.69;5034732;28;20051;-88
2022/06/16 01:24:55;;;;;;;80.85;74.45;;;;;;;14.79;100.00;101503.25;5038065;28;21367;-89
2022/06/16 01:27:55;;;;;;;74.22;68.53;;;;;;;14.63;100.00;101501.09;5031428;28;20054;-87
2022/06/16 01:30:33;;;;;;;78.65;72.60;;;;;;;14.65;100.00;101505.22;5029723;28;20060;-91
2022/06/16 01:33:09;;;;;;;77.75;71.65;;;;;;;14.49;100.00;101502.97;5035345;28;20459;-89
2022/06/16 01:35:42;;;;;;;75.38;69.22;;;;;;;14.50;100.00;101507.31;5036377;28;20045;-89
2022/06/16 01:38:18;;;;;;;69.60;63.72;;;;;;;14.56;100.00;101498.47;5026602;28;20042;-91
2022/06/16 01:40:56;;;;;;;66.25;60.35;;;;;;;14.28;100.00;101504.13;5020732;28;20046;-91
2022/06/16 01:43:30;;;;;;;65.97;60.72;;;;;;;14.25;100.00;101506.38;5032020;28;20168;-88
2022/06/16 01:46:09;;;;;;;67.90;61.78;;;;;;;14.47;100.00;101499.72;5035063;28;20053;-91
2022/06/16 01:48:48;;;;;;;64.10;58.90;;;;;;;14.24;100.00;101496.72;5035617;28;20045;-88
2022/06/16 01:51:23;;;;;;;68.97;63.08;;;;;;;14.18;100.00;101495.72;5033622;28;20473;-88
2022/06/16 01:54:01;;;;;;;69.50;63.80;;;;;;;14.44;100.00;101503.63;5037479;28;20137;-90
2022/06/16 01:56:38;;;;;;;66.63;61.20;;;;;;;14.40;100.00;101499.75;5042070;28;20122;-91
2022/06/16 01:59:16;;;;;;;69.70;64.20;;;;;;;14.24;100.00;101494.88;5034320;28;20050;-89
2022/06/16 02:01:47;;;;;;;69.28;63.67;;;;;;;13.95;100.00;101498.88;5180348;22;20049;-90
2022/06/16 02:04:21;;;;;;;68.63;62.83;;;;;;;14.12;100.00;101493.88;5072204;28;20530;-90
2022/06/16 02:06:59;;;;;;;78.25;71.80;;;;;;;14.33;100.00;101493.59;5082438;28;20052;-91
2022/06/16 02:09:35;;;;;;;66.93;61.28;;;;;;;14.05;100.00;101491.22;5072912;28;20048;-89
2022/06/16 02:12:55;;;;;;;73.05;66.57;;;;;;;14.27;100.00;101496.28;5071788;28;20457;-91
2022/06/16 02:15:09;;;;;;;67.30;61.50;;;;;;;14.32;100.00;101494.63;5075955;28;20525;-89
2022/06/16 02:17:49;;;;;;;72.88;66.28;;;;;;;14.01;100.00;101491.84;5074223;28;20044;-89
2022/06/16 02:20:32;;;;;;;80.38;73.75;;;;;;;13.99;100.00;101494.75;5077109;28;20055;-90
2022/06/16 02:23:10;;;;;;;71.32;65.30;;;;;;;14.00;100.00;101493.69;5079126;28;20424;-91
2022/06/16 02:25:48;;;;;;;78.38;72.22;;;;;;;14.12;100.00;101500.03;5074601;28;20060;-89
2022/06/16 02:28:24;;;;;;;76.07;69.93;;;;;;;14.24;100.00;101504.72;5080109;28;20130;-88
2022/06/16 02:31:32;;;;;;;79.00;72.40;;;;;;;14.14;100.00;101505.19;5077685;28;20055;-89
2022/06/16 02:34:15;;;;;;;76.22;69.63;;;;;;;14.26;100.00;101508.84;5063290;28;20056;-90
2022/06/16 02:37:16;;;;;;;67.10;61.20;;;;;;;14.37;100.00;101510.03;5071646;28;20048;-91
2022/06/16 02:40:01;;;;;;;64.50;58.40;;;;;;;14.36;100.00;101514.53;5074156;28;20090;-88
2022/06/16 02:42:49;;;;;;;63.88;57.90;;;;;;;14.19;100.00;101506.19;5065435;28;20117;-91
2022/06/16 02:45:24;;;;;;;97.38;89.05;;;;;;;18.89;100.00;101509.56;5070268;28;20044;-87
2022/06/16 02:48:00;;;;;;;49.47;44.13;;;;;;;20.68;100.00;101504.03;5084681;28;20123;-87
2022/06/16 02:50:43;;;;;;;38.88;36.10;;;;;;;19.77;100.00;101488.34;5090218;28;20050;-90
2022/06/16 02:53:32;;;;;;;34.55;31.45;;;;;;;15.33;100.00;101488.47;5091009;28;20121;-90
2022/06/16 02:56:07;;;;;;;42.72;38.63;;;;;;;14.85;100.00;101502.41;5068825;28;20055;-90
2022/06/16 02:58:44;;;;;;;45.20;41.13;;;;;;;14.36;100.00;101503.84;5080646;28;20044;-91
2022/06/16 03:01:13;;;;;;;56.70;51.70;;;;;;;14.42;100.00;101504.88;5089112;28;20060;-89
2022/06/16 03:04:11;;;;;;;62.08;56.97;;;;;;;14.27;100.00;101499.78;5069918;28;20049;-90
2022/06/16 03:06:40;;;;;;;57.08;52.20;;;;;;;14.30;100.00;101514.59;5061795;28;20539;-90
2022/06/16 03:09:22;;;;;;;58.97;54.17;;;;;;;14.21;100.00;101514.81;5076962;28;20040;-90
2022/06/16 03:11:58;;;;;;;62.83;57.42;;;;;;;14.00;100.00;101507.06;5076326;28;20064;-89
2022/06/16 03:21:56;;;;;;;66.88;60.80;;;;;;;14.97;100.00;101513.25;5033296;28;20132;-89
2022/06/16 03:24:23;;;;;;;59.97;54.95;;;;;;;15.07;100.00;101512.78;5071872;28;20059;-92
2022/06/16 03:26:59;;;;;;;63.60;58.30;;;;;;;15.35;100.00;101509.69;5072100;28;20461;-89
2022/06/16 03:29:32;;;;;;;65.63;60.40;;;;;;;15.45;100.00;101518.03;5072432;28;20052;-88
2022/06/16 03:31:59;;;;;;;59.53;54.53;;;;;;;15.59;100.00;101510.72;5082526;28;20041;-91
2022/06/16 03:34:27;;;;;;;57.13;51.88;;;;;;;15.60;100.00;101514.22;5074641;28;20041;-90
2022/06/16 03:37:03;;;;;;;56.15;51.35;;;;;;;15.43;100.00;101514.78;5081375;28;20086;-88
2022/06/16 03:39:31;;;;;;;57.53;52.28;;;;;;;15.66;100.00;101508.81;5072963;28;20105;-91
2022/06/16 03:41:58;;;;;;;53.83;49.20;;;;;;;15.65;100.00;101519.75;5080048;28;20045;-91
2022/06/16 03:44:25;;;;;;;57.40;52.28;;;;;;;15.87;100.00;101526.34;5072991;28;20047;-89
2022/06/16 03:46:52;;;;;;;57.13;52.28;;;;;;;15.77;100.00;101521.50;5080260;28;20130;-88
2022/06/16 03:49:19;;;;;;;56.78;51.60;;;;;;;15.77;100.00;101518.81;5075789;28;20052;-88
2022/06/16 03:51:45;;;;;;;56.78;51.47;;;;;;;15.84;100.00;101518.75;5073867;28;20059;-89
2022/06/16 03:54:15;;;;;;;55.65;51.17;;;;;;;16.00;100.00;101522.72;5076038;28;20040;-90
2022/06/16 03:56:47;;;;;;;56.58;51.97;;;;;;;16.03;100.00;101522.25;5076021;28;20464;-89
2022/06/16 03:59:35;;;;;;;53.60;49.38;;;;;;;15.82;100.00;101518.16;5075130;28;20044;-88
2022/06/16 04:50:18;;;;;;;62.38;57.97;;;;;;;17.26;100.00;101517.59;6314506;22;20370;-90
2022/06/16 04:52:46;;;;;;;56.50;51.83;;;;;;;17.33;100.00;101524.47;6313125;22;20026;-91
2022/06/16 04:55:15;;;;;;;55.58;51.45;;;;;;;17.34;100.00;101520.78;6314152;22;20021;-90
2022/06/16 04:57:42;;;;;;;54.72;50.72;;;;;;;17.40;100.00;101525.22;6314548;22;20015;-90
2022/06/16 05:00:12;;;;;;;55.67;51.65;;;;;;;17.67;100.00;101530.13;6313974;22;20078;-88
2022/06/16 05:02:39;;;;;;;55.08;50.78;;;;;;;17.69;100.00;101517.28;6314665;22;20088;-87
2022/06/16 05:05:07;;;;;;;52.03;48.03;;;;;;;17.80;100.00;101518.38;6314790;22;20022;-91
2022/06/16 05:07:35;;;;;;;51.35;47.35;;;;;;;17.94;100.00;101518.94;6312867;22;20023;-88
2022/06/16 05:10:02;;;;;;;53.38;48.92;;;;;;;17.97;100.00;101518.44;6314012;22;20102;-88
2022/06/16 05:12:29;;;;;;;55.17;50.95;;;;;;;18.04;100.00;101519.16;6313373;22;20042;-87
2022/06/16 05:14:56;;;;;;;59.00;54.80;;;;;;;18.20;100.00;101522.97;6313012;22;20019;-88
2022/06/16 05:17:22;;;;;;;60.45;56.13;;;;;;;18.62;100.00;101514.69;6313576;22;20015;-88
2022/06/16 05:19:49;;;;;;;56.90;52.50;;;;;;;18.43;100.00;101514.06;6313496;22;20019;-88
2022/06/16 05:22:16;;;;;;;55.67;51.38;;;;;;;18.54;100.00;101505.09;6313438;22;20022;-91
2022/06/16 05:24:44;;;;;;;56.83;52.33;;;;;;;18.60;100.00;101514.09;6314026;22;20087;-88
2022/06/16 05:27:11;;;;;;;57.63;53.33;;;;;;;18.88;100.00;101513.28;6313542;22;20026;-88
2022/06/16 05:29:38;;;;;;;52.75;48.95;;;;;;;19.04;100.00;101514.41;6309595;22;20433;-89
2022/06/16 05:32:06;;;;;;;53.55;49.40;;;;;;;19.06;100.00;101498.81;6306998;22;20018;-91
2022/06/16 05:34:32;;;;;;;54.22;50.55;;;;;;;19.14;100.00;101496.53;6306659;22;20360;-91
2022/06/16 05:36:59;;;;;;;54.00;49.90;;;;;;;19.19;100.00;101502.00;6306518;22;20026;-88
2022/06/16 05:39:26;;;;;;;52.10;48.22;;;;;;;19.23;100.00;101499.63;6306494;22;20023;-88
2022/06/16 05:41:54;;;;;;;57.78;53.20;;;;;;;19.38;100.00;101496.38;6306735;22;20023;-87
2022/06/16 05:44:21;;;;;;;76.28;71.35;;;;;;;19.56;100.00;101498.81;6306422;22;20019;-88
2022/06/16 05:46:48;;;;;;;63.03;58.63;;;;;;;19.76;100.00;101498.31;6307104;22;20411;-89
2022/06/16 05:49:16;;;;;;;67.28;62.78;;;;;;;20.01;100.00;101502.44;6307237;22;20020;-91
2022/06/16 05:51:43;;;;;;;67.22;62.53;;;;;;;20.03;100.00;101505.66;6305913;22;20384;-91
2022/06/16 05:54:10;;;;;;;72.00;65.68;;;;;;;20.20;100.00;101495.66;6305254;22;20034;-91
2022/06/16 05:56:37;;;;;;;59.25;54.55;;;;;;;20.22;100.00;101501.63;6306035;22;20023;-91
2022/06/16 05:59:08;;;;;;;59.60;54.00;;;;;;;20.26;100.00;101497.34;6304130;22;20026;-92
2022/06/16 06:01:35;;;;;;;54.47;49.92;;;;;;;20.61;100.00;101508.84;6304506;22;20090;-90
2022/06/16 06:04:02;;;;;;;56.70;51.80;;;;;;;20.68;100.00;101502.16;6305196;22;20015;-91
2022/06/16 06:06:29;;;;;;;55.20;50.85;;;;;;;20.68;100.00;101502.16;6306090;22;20023;-91
2022/06/16 06:17:17;;;;;;;44.63;41.15;;;;;;;21.33;100.00;101494.91;6306922;22;20475;-90
2022/06/16 06:19:43;;;;;;;40.90;38.33;;;;;;;21.60;100.00;101499.41;6306423;22;20016;-91
2022/06/16 06:22:13;;;;;;;37.70;35.08;;;;;;;21.48;100.00;101505.84;6306417;22;20486;-91
2022/06/16 06:24:41;;;;;;;37.22;33.83;;;;;;;21.40;100.00;101498.22;6306780;22;20396;-91
2022/06/16 06:27:12;;;;;;;35.85;32.95;;;;;;;21.76;100.00;101495.75;6306935;22;20019;-91
2022/06/16 06:29:41;;;;;;;37.35;34.55;;;;;;;21.98;100.00;101495.59;6306548;22;20019;-92
2022/06/16 06:32:10;;;;;;;32.97;29.88;;;;;;;21.92;100.00;101491.22;6307228;22;20015;-91
2022/06/16 06:34:37;;;;;;;33.47;30.92;;;;;;;21.89;100.00;101487.16;6305453;22;20466;-90
2022/06/16 06:37:05;;;;;;;36.17;33.45;;;;;;;22.24;100.00;101493.84;6314731;22;20020;-90
2022/06/16 06:39:32;;;;;;;33.40;31.17;;;;;;;22.38;100.00;101497.66;6345604;22;20014;-91
2022/06/16 06:41:59;;;;;;;31.95;29.75;;;;;;;22.60;100.00;101492.06;6340471;22;20018;-90
2022/06/16 06:44:26;;;;;;;31.60;29.73;;;;;;;22.76;100.00;101494.78;6342198;22;20044;-91
2022/06/16 06:46:54;;;;;;;31.67;29.20;;;;;;;22.82;100.00;101491.00;6343688;22;20015;-92
2022/06/16 06:49:21;;;;;;;30.63;28.65;;;;;;;22.80;100.00;101498.56;6343327;22;20371;-92
2022/06/16 06:51:49;;;;;;;29.25;27.45;;;;;;;22.99;100.00;101488.03;6343624;22;20021;-91
2022/06/16 06:54:17;;;;;;;30.20;28.20;;;;;;;23.06;100.00;101500.25;6341597;22;20094;-91
2022/06/16 06:56:46;;;;;;;29.15;27.25;;;;;;;23.32;100.00;101492.91;6344270;22;20027;-91
2022/06/16 06:59:16;;;;;;;27.05;25.65;;;;;;;23.44;100.00;101491.81;6342289;22;20044;-90
2022/06/16 07:01:43;;;;;;;27.23;25.73;;;;;;;23.53;100.00;101495.59;6342397;22;20019;-91
2022/06/16 07:04:11;;;;;;;31.70;29.60;;;;;;;23.34;100.00;101495.34;6339325;22;20072;-91
2022/06/16 07:06:39;;;;;;;26.60;25.15;;;;;;;23.59;100.00;101493.69;6340316;22;20038;-90
2022/06/16 07:09:06;;;;;;;26.85;25.25;;;;;;;23.62;100.00;101491.25;6341232;22;20018;-90
2022/06/16 07:11:34;;;;;;;26.30;24.70;;;;;;;23.49;100.00;101500.75;6342747;22;20021;-91
2022/06/16 07:14:01;;;;;;;26.33;24.65;;;;;;;23.75;100.00;101492.59;6342133;22;20029;-92
2022/06/16 07:16:27;;;;;;;27.30;25.63;;;;;;;24.02;100.00;101499.56;6343974;22;20080;-91
2022/06/16 07:18:54;;;;;;;26.73;25.25;;;;;;;23.84;100.00;101503.69;6328631;22;20500;-91
2022/06/16 07:21:24;;;;;;;26.30;24.70;;;;;;;23.77;100.00;101495.84;6313175;22;20390;-90
2022/06/16 07:23:51;;;;;;;26.10;24.45;;;;;;;23.64;100.00;101497.22;6311926;22;20049;-90
2022/06/16 07:26:19;;;;;;;25.75;24.25;;;;;;;23.87;100.00;101495.00;6311965;22;20030;-91
2022/06/16 07:28:47;;;;;;;26.55;24.67;;;;;;;23.83;100.00;101494.75;6311527;22;20019;-90
2022/06/16 07:31:13;;;;;;;25.83;23.73;;;;;;;23.77;100.00;101496.66;6311663;22;20015;-91
2022/06/16 07:33:41;;;;;;;24.45;23.15;;;;;;;23.98;100.00;101496.59;6311738;22;20027;-91
2022/06/16 07:36:08;;;;;;;30.58;28.98;;;;;;;24.20;100.00;101494.31;6311913;22;20019;-91
2022/06/16 07:38:37;;;;;;;33.00;31.30;;;;;;;24.25;100.00;101495.41;6311093;22;20015;-91
2022/06/16 07:43:49;;;;;;;31.73;29.95;;;;;;;24.43;100.00;101492.88;6311515;22;20073;-90
2022/06/16 07:46:15;;;;;;;32.78;30.98;;;;;;;24.61;100.00;101496.03;6310867;22;20027;-90
2022/06/16 07:48:42;;;;;;;32.88;31.23;;;;;;;24.51;100.00;101498.81;6309711;22;20023;-91
2022/06/16 07:51:09;;;;;;;28.83;27.08;;;;;;;24.52;100.00;101493.09;6309124;22;20026;-91
2022/06/16 07:53:37;;;;;;;28.85;27.15;;;;;;;24.74;100.00;101491.88;6310456;22;20022;-91
2022/06/16 07:56:05;;;;;;;29.05;27.35;;;;;;;24.70;100.00;101498.97;6310683;22;20015;-90
2022/06/16 07:58:32;;;;;;;31.95;30.00;;;;;;;24.55;100.00;101495.25;6309445;22;20023;-91
2022/06/16 08:01:00;;;;;;;30.35;28.85;;;;;;;24.64;100.00;101500.91;6310366;22;20018;-90
2022/06/16 08:03:28;;;;;;;32.33;30.42;;;;;;;24.81;100.00;101501.34;6309811;22;20356;-90
2022/06/16 08:05:57;;;;;;;31.73;29.73;;;;;;;24.90;100.00;101499.66;6310815;22;20470;-90
2022/06/16 08:08:24;;;;;;;32.92;31.23;;;;;;;24.79;100.00;101492.66;6310614;22;20026;-91
2022/06/16 08:10:53;;;;;;;30.90;28.90;;;;;;;24.88;100.00;101501.03;6309753;22;20047;-90
2022/06/16 08:13:21;;;;;;;29.98;28.17;;;;;;;25.16;100.00;101496.75;6309679;22;20023;-91
2022/06/16 08:15:49;;;;;;;33.30;31.60;;;;;;;25.49;100.00;101494.25;6310642;22;20015;-90
2022/06/16 08:18:18;;;;;;;34.08;31.92;;;;;;;25.25;100.00;101502.38;6310361;22;20015;-91
2022/06/16 08:20:45;;;;;;;33.15;31.55;;;;;;;25.40;100.00;101498.72;6310168;22;20042;-91
2022/06/16 08:23:13;;;;;;;33.03;31.17;;;;;;;25.43;100.00;101500.84;6308743;22;20022;-91
2022/06/16 08:25:43;;;;;;;31.65;30.02;;;;;;;25.43;99.67;101498.13;6309254;22;20020;-90
2022/06/16 08:28:14;;;;;;;29.77;28.08;;;;;;;25.79;100.00;101498.56;6309760;22;20023;-90
2022/06/16 08:30:44;;;;;;;31.60;29.70;;;;;;;25.62;100.00;101498.22;6308238;22;20023;-91
2022/06/16 08:33:14;;;;;;;29.20;27.60;;;;;;;26.00;100.00;101496.44;6309409;22;20015;-91
2022/06/16 08:35:44;;;;;;;32.97;31.27;;;;;;;25.85;83.05;101489.28;6308853;22;20023;-91
2022/06/16 08:38:14;;;;;;;33.63;31.63;;;;;;;25.66;92.54;101496.53;6305136;22;20027;-90
2022/06/16 08:40:46;;;;;;;29.58;27.95;;;;;;;25.91;85.95;101490.03;6309317;22;20019;-91
2022/06/16 08:43:25;;;;;;;31.05;29.35;;;;;;;26.01;88.49;101492.63;6309380;22;20019;-91
2022/06/16 08:45:56;;;;;;;30.77;29.08;;;;;;;26.37;83.21;101487.50;6309472;22;20021;-91
2022/06/16 08:48:30;;;;;;;31.95;30.23;;;;;;;26.04;92.01;101486.59;6310515;22;20019;-91
2022/06/16 08:51:01;;;;;;;31.90;30.20;;;;;;;26.15;91.55;101488.09;6309570;22;20015;-91
2022/06/16 08:53:46;;;;;;;30.63;28.92;;;;;;;25.99;81.19;101490.19;6309736;22;20015;-91
2022/06/16 08:56:20;;;;;;;30.02;28.30;;;;;;;26.19;76.90;101480.16;6308715;22;20023;-91
2022/06/16 08:58:53;;;;;;;29.40;27.65;;;;;;;26.00;65.80;101483.66;6309356;22;20020;-91
2022/06/16 09:01:24;;;;;;;31.60;29.70;;;;;;;25.91;67.28;101479.94;6318392;22;20487;-91
2022/06/16 09:04:01;;;;;;;29.85;28.05;;;;;;;25.92;64.63;101480.75;6309950;22;20042;-90
2022/06/16 09:06:38;;;;;;;33.15;30.95;;;;;;;26.30;75.95;101476.19;6312951;22;20022;-91
2022/06/16 09:09:13;;;;;;;31.88;30.15;;;;;;;26.24;82.85;101486.34;6311465;22;20019;-92
2022/06/16 09:11:51;;;;;;;30.50;28.70;;;;;;;26.38;72.54;101482.88;6317740;22;20015;-90
2022/06/16 09:17:39;;;;;;;32.70;30.70;;;;;;;26.66;64.41;101471.06;6310242;22;20138;-90
2022/06/16 09:20:13;;;;;;;33.28;31.42;;;;;;;26.63;60.15;101476.28;6309698;22;20019;-91
2022/06/16 09:23:05;;;;;;;32.50;30.65;;;;;;;26.89;66.92;101477.50;6310025;22;20015;-90
2022/06/16 09:25:52;;;;;;;32.10;30.42;;;;;;;26.45;78.49;101475.97;6307255;22;20029;-91
2022/06/16 09:28:25;;;;;;;34.38;32.22;;;;;;;26.78;75.63;101470.59;6315299;22;20015;-91
2022/06/16 09:30:56;;;;;;;31.35;29.40;;;;;;;26.92;69.40;101476.91;6306640;22;20023;-92
2022/06/16 09:33:31;;;;;;;32.40;30.58;;;;;;;27.25;73.92;101476.91;6306348;22;20015;-90
2022/06/16 09:36:02;;;;;;;31.88;30.02;;;;;;;26.92;61.54;101467.91;6307975;22;20353;-90
2022/06/16 09:38:37;;;;;;;32.13;30.10;;;;;;;27.26;75.99;101483.16;6310062;22;20020;-91
2022/06/16 09:42:32;;;;;;;32.28;30.10;;;;;;;26.89;58.10;101465.78;6310227;22;20073;-90
2022/06/16 09:44:03;;;;;;;29.20;27.30;;;;;;;26.98;82.53;101465.91;6310705;22;20015;-92
2022/06/16 09:46:35;;;;;;;29.60;27.42;;;;;;;26.71;72.18;101467.44;6310336;22;20019;-91
2022/06/16 09:49:07;;;;;;;32.13;30.13;;;;;;;26.88;64.95;101456.00;6310077;22;20089;-91
2022/06/16 09:51:37;;;;;;;32.67;30.67;;;;;;;27.37;82.36;101460.88;6310437;22;20015;-91
2022/06/16 09:54:11;;;;;;;29.08;27.20;;;;;;;27.59;80.53;101462.91;6311155;22;20088;-93
2022/06/16 09:56:42;;;;;;;30.77;28.63;;;;;;;27.89;70.15;101451.72;6310633;22;20015;-91
2022/06/16 09:59:13;;;;;;;32.17;30.08;;;;;;;27.67;71.73;101458.66;6310387;22;20456;-92
2022/06/16 10:01:47;;;;;;;30.08;28.25;;;;;;;27.50;66.01;101458.47;6311338;22;20338;-92
2022/06/16 10:04:14;;;;;;;29.00;27.40;;;;;;;27.88;81.65;101448.19;6310382;22;20026;-93
2022/06/16 10:06:54;;;;;;;31.45;29.33;;;;;;;27.50;65.90;101458.47;6310032;22;20029;-92
2022/06/16 10:09:26;;;;;;;27.60;25.85;;;;;;;27.53;74.47;101453.19;6310486;22;20038;-92
2022/06/16 10:12:02;;;;;;;30.10;28.40;;;;;;;27.56;60.68;101449.88;6310238;22;20019;-91
2022/06/16 10:14:43;;;;;;;29.50;27.70;;;;;;;28.04;70.33;101454.91;6310154;22;20432;-90
2022/06/16 10:17:15;;;;;;;41.15;38.85;;;;;;;27.63;59.80;101446.75;6309887;22;20058;-90
2022/06/16 10:19:45;;;;;;;42.70;40.20;;;;;;;27.33;71.70;101445.44;6309729;22;20023;-90
2022/06/16 10:22:14;;;;;;;43.72;41.15;;;;;;;27.47;58.35;101448.16;6309297;22;20019;-90
2022/06/16 10:24:49;;;;;;;46.25;43.55;;;;;;;27.55;63.97;101450.19;6310052;22;20015;-90
2022/06/16 10:27:19;;;;;;;49.05;46.22;;;;;;;27.80;55.47;101448.88;6310352;22;20016;-89
2022/06/16 10:29:53;;;;;;;51.50;48.35;;;;;;;27.96;52.59;101442.00;6309872;22;20372;-91
2022/06/16 10:32:37;;;;;;;50.17;47.22;;;;;;;27.76;54.70;101443.22;6310437;22;20026;-90
2022/06/16 10:35:05;;;;;;;44.70;42.00;;;;;;;27.50;50.54;101439.38;6309967;22;20439;-90
2022/06/16 10:37:33;;;;;;;43.35;40.75;;;;;;;27.38;59.64;101428.94;6310378;22;20025;-89
2022/06/16 10:40:04;;;;;;;44.33;41.92;;;;;;;27.60;54.68;101434.53;6309469;22;20039;-89
2022/06/16 10:42:39;;;;;;;39.03;36.92;;;;;;;27.78;63.18;101432.03;6309366;22;20031;-90
2022/06/16 10:45:11;;;;;;;42.50;40.30;;;;;;;28.05;56.01;101429.25;6308291;22;20019;-92
2022/06/16 10:47:46;;;;;;;40.80;38.60;;;;;;;28.20;53.79;101425.38;6310048;22;20046;-90
2022/06/16 10:50:20;;;;;;;40.85;38.40;;;;;;;28.19;53.15;101428.41;6309788;22;20364;-93
2022/06/16 10:52:51;;;;;;;41.80;39.40;;;;;;;27.81;60.91;101423.22;6310532;22;20023;-93
2022/06/16 10:55:25;;;;;;;39.85;37.63;;;;;;;28.01;55.99;101428.22;6310028;22;20016;-91
2022/06/16 10:58:01;;;;;;;28.02;26.00;;;;;;;28.00;52.41;101420.38;6309394;22;20211;-92
2022/06/16 11:00:30;;;;;;;27.65;25.85;;;;;;;26.78;53.75;101407.94;6308923;22;20047;-89
2022/06/16 11:03:15;;;;;;;41.05;38.38;;;;;;;28.18;68.27;101413.94;6308925;22;20023;-91
2022/06/16 11:05:54;;;;;;;44.58;42.22;;;;;;;28.34;58.84;101410.84;6309502;22;20027;-92
2022/06/16 11:08:23;;;;;;;40.00;37.75;;;;;;;28.48;54.09;101417.91;6309860;22;20023;-92
2022/06/16 11:10:54;;;;;;;45.95;43.25;;;;;;;28.27;58.23;101412.09;6309009;22;20372;-92
2022/06/16 11:13:28;;;;;;;41.67;39.47;;;;;;;28.37;63.45;101408.31;6309556;22;20034;-92
2022/06/16 11:15:55;;;;;;;45.78;43.47;;;;;;;29.05;70.59;101409.13;6309684;22;20026;-92
2022/06/16 11:18:28;;;;;;;46.47;43.75;;;;;;;28.47;50.75;101410.00;6309789;22;20023;-91
2022/06/16 11:20:58;;;;;;;43.78;41.47;;;;;;;28.60;52.83;101416.56;6309790;22;20016;-91
2022/06/16 11:23:29;;;;;;;39.45;37.42;;;;;;;28.74;52.65;101409.88;6308670;22;20094;-92
2022/06/16 11:26:00;;;;;;;29.55;27.75;;;;;;;28.71;47.32;101404.22;6309372;22;20100;-92
2022/06/16 11:28:29;;;;;;;28.90;27.00;;;;;;;28.28;49.87;101405.50;6308187;22;20015;-91
2022/06/16 11:31:01;;;;;;;29.60;27.77;;;;;;;28.55;47.14;101403.81;6309061;22;20016;-92
2022/06/16 11:36:32;;;;;;;28.10;26.42;;;;;;;28.72;59.87;101403.94;6309359;22;20026;-91
2022/06/16 11:39:08;;;;;;;27.55;25.70;;;;;;;28.23;53.67;101404.81;6307093;22;20094;-91
2022/06/16 11:41:35;;;;;;;27.95;26.15;;;;;;;28.55;50.66;101401.09;6308640;22;20338;-91
2022/06/16 11:44:14;;;;;;;27.13;25.52;;;;;;;28.72;62.67;101397.66;6308045;22;20411;-90
2022/06/16 11:46:50;;;;;;;30.15;27.95;;;;;;;28.76;49.32;101391.25;6309277;22;20026;-92
2022/06/16 11:49:33;;;;;;;30.88;29.08;;;;;;;28.30;59.05;101400.56;6308449;22;20098;-92
2022/06/16 11:52:09;;;;;;;29.88;28.27;;;;;;;28.71;55.87;101394.09;6308948;22;20030;-91
2022/06/16 11:54:48;;;;;;;30.50;28.65;;;;;;;28.68;54.20;101391.19;6308657;22;20015;-93
2022/06/16 11:57:25;;;;;;;29.85;28.15;;;;;;;28.43;43.99;101387.97;6308406;22;20033;-93
2022/06/16 12:00:16;;;;;;;31.75;30.05;;;;;;;28.58;45.16;101395.00;6307857;22;20413;-91
2022/06/16 12:03:10;;;;;;;28.73;26.92;;;;;;;28.23;47.82;101388.44;6308586;22;20429;-92
2022/06/16 12:05:42;;;;;;;29.05;27.00;;;;;;;29.10;47.79;101386.31;6308490;22;20479;-91
2022/06/16 12:08:24;;;;;;;;;;;;;;;29.11;44.27;101380.53;6309341;22;20019;-92
2022/06/16 12:10:53;;;;;;;28.17;26.48;;;;;;;29.29;41.68;101378.69;6308370;22;19919;-91
2022/06/16 12:13:31;;;;;;;45.30;42.58;;;;;;;28.16;44.57;101388.84;6308059;22;20019;-90
2022/06/16 12:16:05;;;;;;;32.50;30.52;;;;;;;28.63;42.71;101370.28;6305348;22;20011;-92
2022/06/16 12:18:46;;;;;;;29.10;27.30;;;;;;;28.25;46.45;101384.28;6305569;22;20016;-92
2022/06/16 12:21:21;;;;;;;29.23;27.33;;;;;;;28.87;41.26;101372.66;6304796;22;20020;-92
2022/06/16 12:23:57;;;;;;;27.38;25.48;;;;;;;28.90;45.60;101374.78;6304264;22;20407;-90
2022/06/16 12:26:29;;;;;;;28.85;26.98;;;;;;;28.07;44.25;101366.13;6304909;22;20022;-90
2022/06/16 12:29:06;;;;;;;28.70;26.80;;;;;;;29.31;44.09;101361.94;6304836;22;20019;-92
2022/06/16 12:31:44;;;;;;;29.58;27.55;;;;;;;29.14;41.57;101365.41;6305646;22;20343;-92
2022/06/16 12:34:19;;;;;;;27.95;26.05;;;;;;;29.29;41.73;101359.53;6304778;22;20016;-91
2022/06/16 12:36:52;;;;;;;29.50;27.67;;;;;;;29.10;44.25;101367.16;6304428;22;20019;-91
2022/06/16 12:39:25;;;;;;;29.58;27.77;;;;;;;28.89;45.63;101355.94;6305696;22;20084;-91
2022/06/16 12:41:55;;;;;;;28.27;26.40;;;;;;;29.14;42.66;101347.09;6307459;22;20016;-91